Main page
METAR-TAF:

METAR-TAF

Airports :

Zahedan Airport

Zahedan, Iran

latitude: 29-28N, longitude: 060-53E, elevation: 1370 m

Current weather observation

The report was made 27 minutes ago, at 05:30 UTC
Wind 4 kt from the West/Southwest
Temperature 29°C
Humidity 13%
Pressure 1015 hPa
Visibility 10 km or more
no clouds below 1500 m and no cumulonimbus

METAR: OIZH 250530Z 25004KT CAVOK 29/M02 Q1015 A2998

Time: 10:27 (05:57 UTC)

Forecast

The report was made 6 hours and 57 minutes ago, at 23:00 UTC
Forecast valid from 25 at 00 UTC to 26 at 06 UTC
Wind 8 kt from the North/Northwest
Visibility: 9000 m

TAF: OIZH 242300Z 2500/2606 34008KT 9000 NSC

Weather observations and forecasts of more than 4000 airports (METAR and TAF reports).

The available stations are represented by yellow and red dots on the map.

Hover mouse over dot to see the name of the station.

Then click to see weather observations and forecasts.

To change the map : click on the green buttons with a black cross to zoom in, on the green button with a dash to zoom out, or on the green arrows for adjacent maps.


METAR-TAF: